Time;durP1;ratioP1;P1;durP2;ratioP2;P2;SDS_P1;SDS_P2;PMS_P1;PMS_P2;Temp;Humidity;BMP_temperature;BMP_pressure;BME280_temperature;BME280_humidity;BME280_pressure;Samples;Min_cycle;Max_cycle;Signal;HPM_P1;HPM_P2
2023/12/19 00:00:28;;;;;;;18.23;8.40;;;1.10;98.00;;;;;;5012766;28;20462;-69
2023/12/19 00:02:55;;;;;;;19.10;8.83;;;1.10;98.00;;;;;;5012429;28;20543;-69
2023/12/19 00:05:24;;;;;;;17.50;7.50;;;1.10;98.00;;;;;;5012530;28;20492;-69
2023/12/19 00:07:51;;;;;;;21.13;8.97;;;1.10;98.00;;;;;;5012470;28;20459;-69
2023/12/19 00:10:18;;;;;;;27.67;10.43;;;1.20;98.00;;;;;;5012267;28;20458;-69
2023/12/19 00:12:45;;;;;;;20.10;8.60;;;1.30;98.00;;;;;;5011786;28;20462;-69
2023/12/19 00:15:12;;;;;;;16.13;7.70;;;1.20;98.00;;;;;;5011784;28;20509;-69
2023/12/19 00:17:40;;;;;;;19.27;7.87;;;1.10;98.00;;;;;;5011984;28;20455;-69
2023/12/19 00:20:08;;;;;;;19.43;8.13;;;1.00;98.00;;;;;;5012585;28;20456;-69
2023/12/19 00:22:36;;;;;;;17.13;7.87;;;1.00;98.00;;;;;;5012557;28;20466;-68
2023/12/19 00:25:04;;;;;;;25.60;9.60;;;1.00;98.00;;;;;;5011949;28;20459;-68
2023/12/19 00:27:31;;;;;;;15.83;7.40;;;1.10;98.00;;;;;;5011834;28;20451;-69
2023/12/19 00:29:58;;;;;;;24.20;8.80;;;1.00;98.00;;;;;;4994277;28;20455;-69
2023/12/19 00:32:25;;;;;;;25.83;8.63;;;1.00;98.00;;;;;;5011803;28;21000;-69
2023/12/19 00:34:52;;;;;;;19.63;8.43;;;1.20;98.00;;;;;;5010980;28;20490;-68
2023/12/19 00:37:19;;;;;;;21.63;8.17;;;1.30;98.00;;;;;;5011878;28;20458;-69
2023/12/19 00:39:48;;;;;;;20.63;8.97;;;1.10;98.00;;;;;;5012120;28;20454;-69
2023/12/19 00:42:15;;;;;;;15.50;6.77;;;1.10;98.00;;;;;;5014315;28;20562;-69
2023/12/19 00:44:42;;;;;;;18.23;7.57;;;1.10;98.00;;;;;;5015833;28;20455;-69
2023/12/19 00:47:09;;;;;;;15.67;7.10;;;1.00;98.00;;;;;;5015908;28;20934;-69
2023/12/19 00:49:37;;;;;;;20.13;7.67;;;0.90;98.00;;;;;;5016170;28;20996;-69
2023/12/19 00:52:04;;;;;;;20.10;7.70;;;1.00;98.00;;;;;;5015944;28;20959;-69
2023/12/19 00:54:32;;;;;;;16.07;7.67;;;1.00;98.00;;;;;;5015518;28;20987;-68
2023/12/19 00:57:00;;;;;;;18.60;8.10;;;1.10;98.00;;;;;;5015479;28;20842;-69
2023/12/19 00:59:27;;;;;;;23.20;7.30;;;1.10;98.00;;;;;;5015696;28;20452;-68
2023/12/19 01:01:54;;;;;;;18.37;7.60;;;1.10;98.00;;;;;;5015765;28;20450;-69
2023/12/19 01:04:21;;;;;;;18.10;7.67;;;1.00;98.00;;;;;;5014497;28;20819;-69
2023/12/19 01:06:48;;;;;;;17.27;7.43;;;0.90;98.00;;;;;;5015709;28;20533;-68
2023/12/19 01:09:16;;;;;;;19.80;6.80;;;0.80;98.00;;;;;;5015484;28;20461;-68
2023/12/19 01:11:43;;;;;;;17.13;6.70;;;0.80;98.00;;;;;;5015414;28;20459;-68
2023/12/19 01:14:12;;;;;;;16.20;6.80;;;0.80;98.00;;;;;;5015282;28;20452;-69
2023/12/19 01:16:39;;;;;;;24.50;7.90;;;0.70;98.00;;;;;;5015391;28;20479;-69
2023/12/19 01:19:09;;;;;;;14.97;6.90;;;0.80;98.00;;;;;;5014052;28;20455;-69
2023/12/19 01:21:37;;;;;;;17.57;7.77;;;0.80;98.00;;;;;;5015598;28;20451;-69
2023/12/19 01:24:04;;;;;;;19.77;8.63;;;0.80;98.00;;;;;;5015005;28;20455;-69
2023/12/19 01:26:32;;;;;;;15.60;7.33;;;0.80;98.00;;;;;;5015021;28;20465;-69
2023/12/19 01:28:59;;;;;;;16.40;7.37;;;0.60;98.00;;;;;;5013812;28;20463;-68
2023/12/19 01:31:28;;;;;;;21.10;7.90;;;0.60;98.00;;;;;;5015207;28;20459;-69
2023/12/19 01:33:56;;;;;;;17.60;7.03;;;0.50;98.00;;;;;;5015084;28;20470;-69
2023/12/19 01:36:25;;;;;;;15.20;6.30;;;0.50;98.00;;;;;;5014871;28;20491;-69
2023/12/19 01:38:52;;;;;;;21.80;8.50;;;0.60;98.00;;;;;;5014370;28;21003;-69
2023/12/19 01:41:21;;;;;;;20.30;6.90;;;0.50;98.00;;;;;;4997385;28;20529;-69
2023/12/19 01:43:49;;;;;;;21.53;7.07;;;0.40;98.00;;;;;;5014762;28;20469;-69
2023/12/19 01:46:17;;;;;;;22.50;7.63;;;0.50;98.00;;;;;;5013703;28;20474;-68
2023/12/19 01:48:46;;;;;;;16.27;7.40;;;0.60;98.00;;;;;;5014824;28;20461;-69
2023/12/19 01:51:14;;;;;;;18.23;7.90;;;0.60;98.00;;;;;;5014763;28;20516;-69
2023/12/19 01:53:45;;;;;;;14.83;7.60;;;0.60;98.00;;;;;;5014705;28;20454;-69
2023/12/19 01:56:13;;;;;;;14.17;6.03;;;0.70;98.00;;;;;;5012936;28;20490;-69
2023/12/19 01:58:41;;;;;;;14.70;6.13;;;0.70;98.00;;;;;;5014643;28;20455;-69
2023/12/19 02:01:08;;;;;;;12.70;6.33;;;0.70;98.00;;;;;;5014864;28;20463;-69
2023/12/19 02:03:36;;;;;;;14.20;6.90;;;0.80;98.00;;;;;;5014663;28;20455;-69
2023/12/19 02:06:08;;;;;;;17.30;7.27;;;0.60;98.00;;;;;;5014845;28;20459;-69
2023/12/19 02:08:35;;;;;;;13.00;6.50;;;0.50;98.00;;;;;;5014753;28;20463;-69
2023/12/19 02:11:02;;;;;;;13.83;6.33;;;0.50;98.00;;;;;;5014565;28;20794;-69
2023/12/19 02:13:29;;;;;;;15.93;6.13;;;0.40;98.00;;;;;;5014577;28;20458;-69
2023/12/19 02:15:58;;;;;;;14.93;6.93;;;0.30;98.00;;;;;;5014587;28;20501;-69
2023/12/19 02:18:25;;;;;;;14.87;5.83;;;0.40;98.00;;;;;;5014600;28;20862;-69
2023/12/19 02:20:53;;;;;;;15.83;6.93;;;0.40;98.00;;;;;;5014450;28;20448;-68
2023/12/19 02:23:22;;;;;;;12.70;6.70;;;0.60;98.00;;;;;;5012893;28;20566;-69
2023/12/19 02:25:50;;;;;;;14.10;6.23;;;0.60;98.00;;;;;;5013906;28;20458;-69
2023/12/19 02:28:18;;;;;;;12.93;6.50;;;0.60;98.00;;;;;;5013727;28;20559;-69
2023/12/19 02:30:45;;;;;;;13.17;6.10;;;0.60;98.00;;;;;;5014197;28;20899;-69
2023/12/19 02:33:12;;;;;;;13.10;5.77;;;0.50;98.00;;;;;;5013917;28;20451;-69
2023/12/19 02:35:39;;;;;;;13.40;5.70;;;0.40;98.00;;;;;;4996141;28;20475;-69
2023/12/19 02:38:07;;;;;;;12.30;5.70;;;0.40;98.00;;;;;;5013543;28;21031;-69
2023/12/19 02:40:36;;;;;;;11.80;5.70;;;0.30;98.00;;;;;;5013782;28;20953;-68
2023/12/19 02:43:05;;;;;;;13.13;5.97;;;0.20;98.00;;;;;;5013602;28;20470;-69
2023/12/19 02:45:33;;;;;;;14.67;6.17;;;0.00;98.00;;;;;;5013718;28;20466;-69
2023/12/19 02:48:00;;;;;;;10.07;5.00;;;0.00;98.00;;;;;;5013518;28;20451;-69
2023/12/19 02:50:27;;;;;;;12.67;6.10;;;-0.10;98.00;;;;;;5013741;28;20455;-69
2023/12/19 02:52:54;;;;;;;16.37;6.70;;;-0.10;98.00;;;;;;5013619;28;20862;-69
2023/12/19 02:55:24;;;;;;;21.10;8.17;;;0.00;98.00;;;;;;5013480;28;20455;-69
2023/12/19 02:57:52;;;;;;;17.13;7.33;;;0.00;98.00;;;;;;5013434;28;20903;-69
2023/12/19 03:00:20;;;;;;;21.37;7.67;;;0.10;98.00;;;;;;5013545;28;20784;-69
2023/12/19 03:02:47;;;;;;;16.70;6.30;;;0.20;98.00;;;;;;5012833;28;20452;-69
2023/12/19 03:05:15;;;;;;;18.03;6.67;;;0.30;98.00;;;;;;5012968;28;20470;-70
2023/12/19 03:07:42;;;;;;;16.80;5.67;;;0.50;98.00;;;;;;5013420;28;20463;-69
2023/12/19 03:10:10;;;;;;;16.47;7.10;;;0.60;98.00;;;;;;5013243;28;20957;-68
2023/12/19 03:12:37;;;;;;;16.17;6.97;;;0.80;98.00;;;;;;5013390;28;20458;-69
2023/12/19 03:15:06;;;;;;;12.10;5.97;;;0.60;98.00;;;;;;5013300;28;20458;-69
2023/12/19 03:17:34;;;;;;;14.93;6.70;;;0.50;98.00;;;;;;5013198;28;20909;-68
2023/12/19 03:20:01;;;;;;;11.33;6.10;;;0.40;98.00;;;;;;5013045;28;20451;-68
2023/12/19 03:22:30;;;;;;;15.47;5.90;;;0.40;98.00;;;;;;5013050;28;20458;-68
2023/12/19 03:24:58;;;;;;;12.43;6.90;;;0.30;98.00;;;;;;5012901;28;20445;-68
2023/12/19 03:27:25;;;;;;;15.80;6.60;;;0.20;98.00;;;;;;5013040;28;20455;-68
2023/12/19 03:29:52;;;;;;;13.90;5.90;;;0.00;98.00;;;;;;5012956;28;21038;-68
2023/12/19 03:32:21;;;;;;;9.97;5.60;;;0.00;98.00;;;;;;5012393;28;20453;-69
2023/12/19 03:34:48;;;;;;;13.87;7.10;;;0.00;98.00;;;;;;5012483;28;20957;-68
2023/12/19 03:37:15;;;;;;;15.90;6.57;;;0.20;98.00;;;;;;5012710;28;20525;-68
2023/12/19 03:39:42;;;;;;;11.97;5.90;;;0.40;98.00;;;;;;5012911;28;20457;-69
2023/12/19 03:42:09;;;;;;;13.87;6.83;;;0.40;98.00;;;;;;5012630;28;20525;-68
2023/12/19 03:44:37;;;;;;;15.67;6.57;;;0.40;98.00;;;;;;5012808;28;20454;-69
2023/12/19 03:47:04;;;;;;;14.67;6.00;;;0.20;98.00;;;;;;5010740;28;20470;-68
2023/12/19 03:49:32;;;;;;;12.00;6.20;;;0.20;98.00;;;;;;5012482;28;20463;-69
2023/12/19 03:51:59;;;;;;;15.07;6.10;;;0.10;98.00;;;;;;5012801;28;20462;-69
2023/12/19 03:54:27;;;;;;;15.30;6.73;;;-0.10;98.00;;;;;;5012559;28;20454;-69
2023/12/19 03:56:54;;;;;;;15.37;6.50;;;-0.10;98.00;;;;;;5011615;28;20522;-69
2023/12/19 03:59:21;;;;;;;16.20;6.37;;;-0.20;98.00;;;;;;4995560;28;20542;-69
2023/12/19 04:01:51;;;;;;;16.40;6.67;;;-0.10;98.00;;;;;;5012889;28;20457;-68
2023/12/19 04:04:18;;;;;;;13.80;5.77;;;-0.30;98.00;;;;;;5011287;28;20450;-68
2023/12/19 04:06:47;;;;;;;14.27;6.50;;;-0.30;98.00;;;;;;5012609;28;21152;-68
2023/12/19 04:09:14;;;;;;;13.00;6.30;;;-0.30;98.00;;;;;;5012029;28;20471;-68
2023/12/19 04:11:46;;;;;;;16.77;6.40;;;-0.30;98.00;;;;;;5012114;28;20466;-69
2023/12/19 04:14:13;;;;;;;11.00;5.53;;;-0.20;98.00;;;;;;5011948;28;20465;-68
2023/12/19 04:16:41;;;;;;;15.87;6.23;;;-0.20;98.00;;;;;;5011006;28;20826;-68
2023/12/19 04:19:08;;;;;;;17.77;6.43;;;0.00;98.00;;;;;;5012218;28;20465;-69
2023/12/19 04:21:36;;;;;;;14.13;6.40;;;-0.20;98.00;;;;;;5011425;28;20457;-68
2023/12/19 04:24:05;;;;;;;13.00;5.67;;;-0.30;98.00;;;;;;5011958;28;20490;-69
2023/12/19 04:26:32;;;;;;;17.17;6.53;;;-0.30;98.00;;;;;;5012240;28;20458;-69
2023/12/19 04:29:02;;;;;;;13.33;6.13;;;-0.20;98.00;;;;;;5011970;28;20456;-69
2023/12/19 04:31:29;;;;;;;16.30;7.10;;;-0.20;98.00;;;;;;5012127;28;20466;-69
2023/12/19 04:33:57;;;;;;;14.57;5.97;;;-0.10;98.00;;;;;;5011879;28;20455;-69
2023/12/19 04:36:24;;;;;;;12.93;5.77;;;-0.20;98.00;;;;;;5011948;28;20493;-69
2023/12/19 04:38:51;;;;;;;10.47;5.27;;;-0.30;98.00;;;;;;5011861;28;20460;-68
2023/12/19 04:41:19;;;;;;;16.03;6.10;;;-0.30;98.00;;;;;;5011805;28;20466;-69
2023/12/19 04:43:46;;;;;;;14.00;5.53;;;-0.40;98.00;;;;;;5011788;28;20455;-69
2023/12/19 04:46:13;;;;;;;14.90;6.03;;;-0.50;98.00;;;;;;5011890;28;20458;-69
2023/12/19 04:48:42;;;;;;;14.13;5.70;;;-0.40;98.00;;;;;;5011806;28;20448;-69
2023/12/19 04:51:16;;;;;;;9.80;5.40;;;-0.30;98.00;;;;;;5011864;28;20983;-68
2023/12/19 04:53:43;;;;;;;12.13;5.33;;;-0.40;98.00;;;;;;4994522;28;20454;-68
2023/12/19 04:56:11;;;;;;;20.30;5.90;;;-0.50;98.00;;;;;;5011628;28;20449;-69
2023/12/19 04:58:39;;;;;;;12.13;5.17;;;-0.50;98.00;;;;;;5011853;28;20450;-68
2023/12/19 05:01:06;;;;;;;12.63;6.10;;;-0.50;98.00;;;;;;5011903;28;20508;-69
2023/12/19 05:03:37;;;;;;;14.30;5.93;;;-0.30;98.00;;;;;;5011911;28;20554;-69
2023/12/19 05:06:06;;;;;;;11.60;5.50;;;-0.30;98.00;;;;;;5011256;28;20999;-69
2023/12/19 05:08:33;;;;;;;11.63;4.90;;;-0.30;98.00;;;;;;5009775;28;20454;-68
2023/12/19 05:11:00;;;;;;;11.03;5.10;;;-0.40;98.00;;;;;;5010102;28;20549;-68
2023/12/19 05:13:27;;;;;;;12.63;4.63;;;-0.60;98.00;;;;;;5011435;28;20465;-68
2023/12/19 05:15:55;;;;;;;14.67;6.03;;;-0.60;98.00;;;;;;5010550;28;20462;-68
2023/12/19 05:18:32;;;;;;;13.93;5.80;;;-0.60;98.00;;;;;;5010428;28;20494;-68
2023/12/19 05:20:59;;;;;;;11.53;5.30;;;-0.60;98.00;;;;;;5011713;28;20512;-68
2023/12/19 05:23:27;;;;;;;11.20;5.40;;;-0.30;98.00;;;;;;5011642;28;20858;-68
2023/12/19 05:25:54;;;;;;;12.47;5.97;;;-0.20;98.00;;;;;;5011654;28;20461;-69
2023/12/19 05:28:21;;;;;;;14.23;6.10;;;-0.20;98.00;;;;;;5013939;28;20795;-68
2023/12/19 05:30:48;;;;;;;11.57;5.00;;;-0.30;98.00;;;;;;5014996;28;20467;-68
2023/12/19 05:33:16;;;;;;;13.03;5.73;;;-0.30;98.00;;;;;;5014968;28;20807;-68
2023/12/19 05:35:44;;;;;;;20.53;8.07;;;-0.10;98.00;;;;;;5014807;28;20975;-69
2023/12/19 05:38:11;;;;;;;16.40;6.53;;;-0.10;98.00;;;;;;5014904;28;20483;-68
2023/12/19 05:40:42;;;;;;;14.20;6.00;;;-0.10;98.00;;;;;;5015053;28;20460;-68
2023/12/19 05:43:09;;;;;;;9.80;5.00;;;-0.30;98.00;;;;;;5013927;28;21177;-70
2023/12/19 05:45:36;;;;;;;11.23;5.90;;;-0.50;98.00;;;;;;5014249;28;20461;-69
2023/12/19 05:48:04;;;;;;;18.63;6.53;;;-0.50;98.00;;;;;;5015012;28;20461;-69
2023/12/19 05:50:33;;;;;;;10.63;5.60;;;-0.50;98.00;;;;;;5015061;28;20454;-69
2023/12/19 05:53:00;;;;;;;13.43;5.70;;;-0.60;98.00;;;;;;5015107;28;20458;-68
2023/12/19 05:55:27;;;;;;;13.83;6.17;;;-0.60;98.00;;;;;;5015200;28;20816;-68
2023/12/19 05:57:54;;;;;;;15.00;6.80;;;-0.50;98.00;;;;;;5015107;28;20490;-69
2023/12/19 06:00:22;;;;;;;14.03;6.90;;;-0.40;98.00;;;;;;5014869;28;20945;-68
2023/12/19 06:02:50;;;;;;;13.73;6.20;;;-0.30;98.00;;;;;;5015043;28;20474;-68
2023/12/19 06:05:18;;;;;;;18.90;6.40;;;-0.30;98.00;;;;;;5014938;28;20454;-68
2023/12/19 06:07:46;;;;;;;18.23;6.40;;;-0.40;98.00;;;;;;5015045;28;20470;-68
2023/12/19 06:10:15;;;;;;;17.93;6.53;;;-0.50;98.00;;;;;;5014770;28;20445;-68
2023/12/19 06:12:41;;;;;;;16.13;5.37;;;-0.50;98.00;;;;;;5014414;28;20446;-69
2023/12/19 06:15:12;;;;;;;10.63;5.33;;;-0.70;98.00;;;;;;5014682;28;20455;-68
2023/12/19 06:17:42;;;;;;;15.03;5.50;;;-0.80;98.00;;;;;;5014473;28;20544;-69
2023/12/19 06:20:11;;;;;;;11.77;5.33;;;-0.80;98.00;;;;;;5014490;28;20493;-68
2023/12/19 06:22:38;;;;;;;16.17;5.80;;;-0.80;98.00;;;;;;5014432;28;20486;-69
2023/12/19 06:25:07;;;;;;;15.30;6.63;;;-0.80;98.00;;;;;;5013934;28;20465;-68
2023/12/19 06:27:35;;;;;;;15.40;6.93;;;-0.80;98.00;;;;;;5013941;28;20466;-69
2023/12/19 06:30:03;;;;;;;21.97;8.37;;;-0.80;98.00;;;;;;5013894;28;20957;-68
2023/12/19 06:32:31;;;;;;;19.53;8.07;;;-0.40;98.00;;;;;;5014071;28;20466;-69
2023/12/19 06:34:58;;;;;;;16.27;6.10;;;-0.50;98.00;;;;;;5013913;28;20466;-69
2023/12/19 06:37:25;;;;;;;12.33;6.30;;;-0.60;98.00;;;;;;5013904;28;20966;-68
2023/12/19 06:39:53;;;;;;;17.03;7.47;;;-0.70;98.00;;;;;;5012720;28;20454;-68
2023/12/19 06:42:21;;;;;;;12.20;6.20;;;-0.70;98.00;;;;;;5013575;28;20488;-69
2023/12/19 06:44:48;;;;;;;13.57;5.90;;;-0.80;98.00;;;;;;5013512;28;20960;-69
2023/12/19 06:47:16;;;;;;;22.13;6.80;;;-1.00;98.00;;;;;;5013640;28;20462;-68
2023/12/19 06:49:44;;;;;;;20.07;6.80;;;-1.00;98.00;;;;;;5013679;28;20454;-69
2023/12/19 06:52:11;;;;;;;11.83;5.80;;;-1.10;98.00;;;;;;5013549;28;20498;-68
2023/12/19 06:54:39;;;;;;;14.93;6.90;;;-1.00;98.00;;;;;;5013588;28;20513;-70
2023/12/19 06:57:06;;;;;;;13.93;6.17;;;-0.90;98.00;;;;;;5013384;28;20487;-68
2023/12/19 07:00:09;;;;;;;15.83;7.13;;;-0.80;98.00;;;;;;5013550;28;20520;-68
2023/12/19 07:02:37;;;;;;;16.60;6.80;;;-0.60;98.00;;;;;;4995875;28;20481;-73
2023/12/19 07:05:05;;;;;;;13.90;6.20;;;-0.60;98.00;;;;;;5013427;28;20458;-72
2023/12/19 07:07:32;;;;;;;17.53;7.50;;;-0.70;98.00;;;;;;5013472;28;20506;-72
2023/12/19 07:09:59;;;;;;;15.50;6.23;;;-0.70;98.00;;;;;;5013295;28;20598;-72
2023/12/19 07:12:26;;;;;;;20.03;7.20;;;-0.70;98.00;;;;;;5013388;28;20451;-72
2023/12/19 07:14:54;;;;;;;18.40;7.57;;;-0.70;98.00;;;;;;5012070;28;20481;-72
2023/12/19 07:17:22;;;;;;;18.20;7.10;;;-0.50;98.00;;;;;;5013204;28;20478;-73
2023/12/19 07:19:49;;;;;;;15.60;6.13;;;-0.50;98.00;;;;;;5013237;28;20479;-72
2023/12/19 07:22:17;;;;;;;15.50;6.60;;;-0.60;98.00;;;;;;5013297;28;20536;-72
2023/12/19 07:24:45;;;;;;;13.90;6.70;;;-0.50;98.00;;;;;;5013090;28;20463;-73
2023/12/19 07:27:12;;;;;;;14.33;6.87;;;-0.40;98.00;;;;;;5013186;28;20813;-72
2023/12/19 07:29:39;;;;;;;13.07;6.40;;;-0.40;98.00;;;;;;5013202;28;20462;-72
2023/12/19 07:32:08;;;;;;;19.30;7.23;;;-0.10;98.00;;;;;;5013205;28;20461;-72
2023/12/19 07:34:35;;;;;;;22.30;7.40;;;0.00;98.00;;;;;;5013031;28;20513;-73
2023/12/19 07:37:03;;;;;;;19.87;7.33;;;0.10;98.00;;;;;;5012840;28;20966;-73
2023/12/19 07:39:30;;;;;;;17.27;6.50;;;0.00;98.00;;;;;;5013182;28;20461;-68
2023/12/19 07:41:57;;;;;;;13.37;6.50;;;0.00;98.00;;;;;;5012949;28;20964;-73
2023/12/19 07:44:24;;;;;;;15.40;6.10;;;0.20;98.00;;;;;;5012905;28;20452;-72
2023/12/19 07:46:51;;;;;;;15.10;6.63;;;0.10;98.00;;;;;;5012828;28;20466;-72
2023/12/19 07:49:19;;;;;;;15.13;6.33;;;0.00;98.00;;;;;;5012707;28;20458;-71
2023/12/19 07:51:47;;;;;;;16.77;8.10;;;0.10;98.00;;;;;;4994705;28;20812;-72
2023/12/19 07:54:14;;;;;;;19.57;7.83;;;0.10;98.00;;;;;;5012383;28;21275;-72
2023/12/19 07:56:42;;;;;;;17.53;7.40;;;0.10;98.00;;;;;;5012542;28;20454;-72
2023/12/19 07:59:10;;;;;;;24.37;8.67;;;0.20;98.00;;;;;;5012060;28;21007;-72
2023/12/19 08:01:38;;;;;;;17.07;7.60;;;0.20;98.00;;;;;;5012446;28;20814;-72
2023/12/19 08:04:06;;;;;;;23.10;8.30;;;0.20;98.00;;;;;;5012168;28;20494;-73
2023/12/19 08:06:34;;;;;;;19.43;8.30;;;0.10;98.00;;;;;;5012427;28;20542;-72
2023/12/19 08:09:02;;;;;;;17.83;7.73;;;0.00;98.00;;;;;;5012308;28;20465;-73
2023/12/19 08:11:30;;;;;;;19.37;6.97;;;0.10;98.00;;;;;;5012255;28;20486;-73
2023/12/19 08:13:57;;;;;;;14.17;6.30;;;0.20;98.00;;;;;;5011955;28;20459;-72
2023/12/19 08:16:24;;;;;;;16.80;7.40;;;0.30;98.00;;;;;;5012044;28;20502;-72
2023/12/19 08:18:51;;;;;;;16.30;7.40;;;0.30;98.00;;;;;;5011834;28;20483;-72
2023/12/19 08:21:18;;;;;;;13.90;7.30;;;0.50;98.00;;;;;;5012110;28;20483;-72
2023/12/19 08:23:48;;;;;;;19.43;7.37;;;0.40;98.00;;;;;;5012259;28;20450;-72
2023/12/19 08:26:15;;;;;;;16.70;7.47;;;0.50;98.00;;;;;;5012091;28;20474;-72
2023/12/19 08:28:42;;;;;;;13.70;7.20;;;0.40;98.00;;;;;;5011770;28;20463;-72
2023/12/19 08:31:09;;;;;;;17.43;6.87;;;0.40;98.00;;;;;;5011920;28;21001;-72
2023/12/19 08:33:38;;;;;;;12.97;6.53;;;0.60;98.00;;;;;;5011973;28;20451;-72
2023/12/19 08:36:06;;;;;;;17.43;7.70;;;0.60;98.00;;;;;;5011804;28;20451;-71
2023/12/19 08:38:33;;;;;;;14.47;6.43;;;0.60;98.00;;;;;;5011684;28;20529;-71
2023/12/19 08:41:02;;;;;;;17.10;7.30;;;0.60;98.00;;;;;;5011821;28;20470;-71
2023/12/19 08:46:04;;;;;;;14.33;6.63;;;0.70;98.00;;;;;;5044800;23;20480;-72
2023/12/19 08:48:32;;;;;;;17.23;7.33;;;0.80;98.00;;;;;;4973024;28;20462;-71
2023/12/19 08:50:59;;;;;;;21.17;8.03;;;0.80;98.00;;;;;;4972196;28;20456;-71
2023/12/19 08:53:25;;;;;;;14.37;6.23;;;0.80;98.00;;;;;;4972047;28;20453;-72
2023/12/19 08:55:53;;;;;;;16.20;6.93;;;0.80;98.00;;;;;;4971930;28;20462;-71
2023/12/19 08:58:21;;;;;;;18.37;7.17;;;0.80;98.00;;;;;;4971639;28;20486;-71
2023/12/19 09:00:49;;;;;;;14.00;6.30;;;0.90;98.00;;;;;;4971995;28;20484;-71
2023/12/19 09:03:16;;;;;;;18.67;7.40;;;1.00;98.00;;;;;;4974857;28;20454;-69
2023/12/19 09:05:44;;;;;;;16.07;7.30;;;1.00;98.00;;;;;;4975716;28;20460;-72
2023/12/19 09:08:11;;;;;;;18.13;8.30;;;1.20;98.00;;;;;;4975961;28;20464;-70
2023/12/19 09:10:38;;;;;;;18.47;7.70;;;1.30;98.00;;;;;;4984750;28;20459;-71
2023/12/19 09:13:06;;;;;;;17.70;5.93;;;1.20;98.00;;;;;;5014509;28;20839;-71
2023/12/19 09:15:37;;;;;;;14.43;6.67;;;1.20;98.00;;;;;;5014917;28;20867;-71
2023/12/19 09:18:04;;;;;;;15.50;7.20;;;1.30;98.00;;;;;;4980951;28;20491;-71
2023/12/19 09:20:32;;;;;;;15.90;8.10;;;1.30;98.00;;;;;;5014617;28;20538;-72
2023/12/19 09:22:59;;;;;;;18.43;7.80;;;1.40;98.00;;;;;;5014509;28;20452;-71
2023/12/19 09:25:29;;;;;;;22.53;7.73;;;1.40;98.00;;;;;;5014601;28;20974;-71
2023/12/19 09:27:56;;;;;;;21.50;8.17;;;1.50;98.00;;;;;;4990146;28;20468;-72
2023/12/19 09:30:25;;;;;;;15.87;6.93;;;1.70;98.00;;;;;;4994975;28;20462;-70
2023/12/19 09:32:53;;;;;;;16.67;7.67;;;1.80;98.00;;;;;;4994951;28;20456;-71
2023/12/19 09:35:21;;;;;;;15.10;6.27;;;1.80;98.00;;;;;;4994821;28;20523;-71
2023/12/19 09:37:48;;;;;;;19.20;8.03;;;1.90;98.00;;;;;;4994691;28;20901;-72
2023/12/19 09:40:17;;;;;;;18.90;8.20;;;2.00;98.00;;;;;;4994752;28;20456;-71
2023/12/19 09:42:44;;;;;;;25.57;8.07;;;2.10;98.00;;;;;;4994590;28;20986;-71
2023/12/19 09:45:12;;;;;;;15.80;7.10;;;2.20;98.00;;;;;;4994321;28;20468;-71
2023/12/19 09:47:41;;;;;;;17.33;7.53;;;2.30;98.00;;;;;;4994629;28;20456;-71
2023/12/19 09:50:14;;;;;;;16.47;6.93;;;2.30;98.00;;;;;;4994371;28;20550;-72
2023/12/19 09:52:42;;;;;;;13.40;6.40;;;2.40;98.00;;;;;;4994682;28;20803;-67
2023/12/19 09:55:11;;;;;;;20.40;8.90;;;3.60;98.00;;;;;;4994402;28;20897;-71
2023/12/19 09:57:40;;;;;;;16.87;8.37;;;5.10;98.00;;;;;;4994221;28;20464;-72
2023/12/19 10:00:10;;;;;;;21.23;8.10;;;5.10;98.00;;;;;;4994234;28;20994;-71
2023/12/19 10:02:37;;;;;;;22.90;8.23;;;4.90;98.00;;;;;;4994327;28;20458;-71
2023/12/19 10:05:06;;;;;;;20.30;8.27;;;4.80;98.00;;;;;;4992986;28;20455;-72
2023/12/19 10:07:36;;;;;;;20.57;8.80;;;4.50;98.00;;;;;;4994706;28;20485;-71
2023/12/19 10:10:03;;;;;;;21.73;8.73;;;4.40;98.00;;;;;;4995118;28;20514;-72
2023/12/19 10:12:31;;;;;;;19.70;8.50;;;4.30;98.00;;;;;;4994762;28;20493;-72
2023/12/19 10:15:12;;;;;;;23.37;9.13;;;4.20;98.00;;;;;;4993624;28;20796;-71
2023/12/19 10:17:39;;;;;;;23.47;8.73;;;4.00;98.00;;;;;;4994090;28;20462;-70
2023/12/19 10:20:10;;;;;;;20.53;9.20;;;4.10;98.00;;;;;;4993976;28;20829;-72
2023/12/19 10:22:39;;;;;;;20.50;9.27;;;4.00;98.00;;;;;;4993992;28;20516;-72
2023/12/19 10:25:09;;;;;;;20.20;8.53;;;3.90;98.00;;;;;;4993728;28;20460;-71
2023/12/19 10:27:36;;;;;;;20.07;8.53;;;3.90;98.00;;;;;;4992720;28;20455;-71
2023/12/19 10:30:17;;;;;;;22.20;8.90;;;3.80;98.00;;;;;;4993861;28;20460;-71
2023/12/19 10:32:46;;;;;;;20.53;9.10;;;3.80;98.00;;;;;;4993961;28;20548;-72
2023/12/19 10:35:13;;;;;;;23.07;9.10;;;3.70;98.00;;;;;;4993526;28;20517;-72
2023/12/19 10:37:42;;;;;;;21.20;8.53;;;3.70;98.00;;;;;;4993547;28;20890;-72
2023/12/19 10:40:11;;;;;;;22.80;9.30;;;3.60;98.00;;;;;;4993756;28;20496;-72
2023/12/19 10:42:38;;;;;;;18.73;8.50;;;3.50;98.00;;;;;;4993843;28;20516;-72
2023/12/19 10:45:06;;;;;;;15.20;7.70;;;3.60;98.00;;;;;;4993450;28;20469;-72
2023/12/19 10:47:34;;;;;;;18.80;7.60;;;3.60;98.00;;;;;;5002149;28;20491;-71
2023/12/19 10:50:01;;;;;;;20.30;8.93;;;3.60;98.00;;;;;;5012915;28;20459;-72
2023/12/19 10:52:29;;;;;;;20.77;8.80;;;3.80;98.00;;;;;;5012953;28;20456;-72
2023/12/19 10:55:05;;;;;;;22.27;9.83;;;3.70;98.00;;;;;;5012941;28;20456;-71
2023/12/19 10:57:35;;;;;;;22.60;9.57;;;3.80;98.00;;;;;;5012716;28;20460;-71
2023/12/19 11:00:09;;;;;;;18.73;8.70;;;3.70;98.00;;;;;;5012113;28;20577;-70
2023/12/19 11:02:41;;;;;;;22.83;9.53;;;3.60;98.00;;;;;;5012859;28;20467;-70
2023/12/19 11:05:20;;;;;;;21.23;8.90;;;3.50;98.00;;;;;;5012650;28;20462;-70
2023/12/19 11:07:53;;;;;;;19.77;7.57;;;3.40;98.00;;;;;;5012713;28;20465;-69
2023/12/19 11:10:23;;;;;;;16.20;7.20;;;3.40;98.00;;;;;;4995921;28;21021;-71
2023/12/19 11:12:53;;;;;;;17.00;6.63;;;3.60;98.00;;;;;;5012670;28;20467;-71
2023/12/19 11:15:20;;;;;;;20.43;6.93;;;3.60;98.00;;;;;;5012237;28;20468;-71
2023/12/19 11:18:00;;;;;;;15.00;6.43;;;3.60;98.00;;;;;;5012607;28;20484;-71
2023/12/19 11:20:43;;;;;;;17.57;6.50;;;3.70;98.00;;;;;;5012619;28;20470;-71
2023/12/19 11:23:21;;;;;;;17.13;6.57;;;3.80;98.00;;;;;;5012361;28;20452;-72
2023/12/19 11:25:55;;;;;;;15.93;6.70;;;3.80;98.00;;;;;;5012271;28;21026;-71
2023/12/19 11:28:24;;;;;;;15.77;6.37;;;3.80;98.00;;;;;;5012465;28;20467;-72
2023/12/19 11:30:51;;;;;;;14.83;6.60;;;3.80;98.00;;;;;;5012304;28;20448;-71
2023/12/19 11:33:29;;;;;;;18.40;7.10;;;3.90;98.00;;;;;;4997472;28;20481;-72
2023/12/19 11:35:56;;;;;;;18.80;7.27;;;4.00;98.00;;;;;;4992606;28;20457;-71
2023/12/19 11:38:29;;;;;;;15.20;6.70;;;3.90;98.00;;;;;;4992570;28;20473;-71
2023/12/19 11:40:58;;;;;;;13.07;6.30;;;3.80;98.00;;;;;;4992800;28;20780;-72
2023/12/19 11:43:57;;;;;;;19.97;7.43;;;3.90;98.00;;;;;;4992374;28;20462;-70
2023/12/19 11:46:26;;;;;;;18.40;7.27;;;3.80;98.00;;;;;;4992557;28;20550;-71
2023/12/19 11:48:55;;;;;;;14.83;6.60;;;4.00;98.00;;;;;;4992326;28;20453;-68
2023/12/19 11:51:43;;;;;;;19.80;7.70;;;4.10;98.00;;;;;;4992361;28;20487;-68
2023/12/19 11:54:12;;;;;;;14.40;6.60;;;4.30;98.00;;;;;;4992256;28;20474;-72
2023/12/19 11:56:41;;;;;;;15.70;7.33;;;4.50;98.00;;;;;;4974588;28;20473;-71
2023/12/19 11:59:09;;;;;;;22.30;7.40;;;4.60;98.00;;;;;;4992175;28;20482;-71
2023/12/19 12:01:40;;;;;;;19.47;7.13;;;4.70;98.00;;;;;;4992527;28;20488;-71
2023/12/19 12:04:08;;;;;;;18.00;7.70;;;4.70;98.00;;;;;;4992033;28;20462;-71
2023/12/19 12:06:35;;;;;;;21.13;7.83;;;4.70;98.00;;;;;;4992015;28;20463;-71
2023/12/19 12:09:05;;;;;;;16.40;7.00;;;4.60;98.00;;;;;;4991915;28;20876;-72
2023/12/19 12:11:47;;;;;;;14.17;6.70;;;4.50;98.00;;;;;;4991737;28;20461;-72
2023/12/19 12:14:16;;;;;;;17.97;7.33;;;4.50;98.00;;;;;;4991734;28;21003;-71
2023/12/19 12:16:43;;;;;;;20.33;7.90;;;4.70;98.00;;;;;;4992369;28;21051;-73
2023/12/19 12:19:14;;;;;;;16.40;7.40;;;4.90;98.00;;;;;;4992318;28;20489;-72
2023/12/19 12:21:45;;;;;;;16.93;7.23;;;5.10;98.00;;;;;;4991301;28;20486;-73
2023/12/19 12:24:20;;;;;;;17.33;7.10;;;5.30;98.00;;;;;;4992381;28;20466;-73
2023/12/19 12:26:49;;;;;;;21.40;8.00;;;5.40;98.00;;;;;;4992621;28;20908;-72
2023/12/19 12:29:19;;;;;;;15.80;7.00;;;5.60;98.00;;;;;;4992354;28;20888;-73
2023/12/19 12:34:21;;;;;;;18.17;7.63;;;6.30;98.00;;;;;;5026600;22;20523;-63
2023/12/19 12:36:50;;;;;;;12.77;7.03;;;6.60;98.00;;;;;;5002979;28;20478;-63
2023/12/19 12:39:20;;;;;;;18.10;7.20;;;6.90;98.00;;;;;;5010222;28;20494;-63
2023/12/19 12:41:49;;;;;;;20.00;7.97;;;7.10;98.00;;;;;;5010510;28;20980;-64
2023/12/19 12:44:16;;;;;;;19.90;7.70;;;7.30;98.00;;;;;;5010064;28;20461;-64
2023/12/19 12:46:47;;;;;;;19.07;8.03;;;7.50;98.00;;;;;;5010559;28;20520;-63
2023/12/19 12:49:19;;;;;;;17.20;7.47;;;7.60;98.00;;;;;;5011082;28;20466;-63
2023/12/19 12:51:48;;;;;;;20.03;7.83;;;7.40;98.00;;;;;;5011155;28;20456;-63
2023/12/19 12:54:19;;;;;;;19.63;7.53;;;7.00;98.00;;;;;;5011152;28;20926;-64